Lincoln City, OR

2:46 PM PDT on March 24, 2017 (GMT -0700)
Lincoln City 7th Court | | Change Station

Elev 40 ft 44.97 °N, 124.02 °W | Updated 8 seconds ago

Overcast
Overcast
51.4 °F
Feels Like 51.4 °F
N
7.6
Wind Variable Wind from South
Gusts 9.8 mph

Today
High -- | Low -- °F
--% Chance of Precip.
Yesterday
High -- | Low -- °F
Precip. -- in
Pressure 29.97 in
Visibility 10.0 miles
Clouds Mostly Cloudy 1500 ft
Overcast 2100 ft
Dew Point 47 °F
Humidity 84%
Rainfall 0.39 in
Snow Depth Not available.
7:10 AM 7:34 PM
Waning Crescent, 13% visible
METAR KONP 242135Z AUTO 19020G34KT 10SM BKN015 OVC021 11/08 A2997 RMK AO2
Pressure 29.97 in
Visibility 10.0 miles
Clouds Mostly Cloudy 1500 ft
Overcast 2100 ft
Dew Point 47 °F
Humidity 84%
Rainfall 0.39 in
Snow Depth Not available.
7:10 AM 7:34 PM
Waning Crescent, 13% visible
METAR KONP 242135Z AUTO 19020G34KT 10SM BKN015 OVC021 11/08 A2997 RMK AO2

Get Severe Weather Alerts

Thanks for signing up!

Be on the lookout for a verification email in your inbox.

You'll start receiving the daily forecast at 8 AM.

×

10-Day Weather Forecast

Almanac

Astronomy

Mar. 24, 2017 Rise Set
Actual Time
Civil Twilight
Nautical Twilight
Astronomical Twilight
Moon
Length of Visible Light
Length of Day
Tomorrow will be .
, % of the Moon is Illuminated

Today's Extremes

State Highs State Lows

Community

WunderPhotos

Upload Photos

1,962,540 photos uploaded!

WunderBlog® & News

Nearby

Air Quality

  Air Quality AQ Index Pollutant
Not available.

Snow Depth

Station Depth Elevation

Earthquake Activity

City Distance Mag. Time & Date
Minimum magnitude displayed is 2.5.

Earthquake Activity

City Distance Mag. Time & Date
Minimum magnitude displayed is 2.5.

Coastal Water Temperatures

Place Temperature

Stations

Nearby Weather Stations

Station Location Temp. Windchill Dew Point Humidity Wind Precip. Elev Updated Type
                   

Watches & Warnings

There are currently no watches in effect.